createdAt,value
2023-05-16T00:01:52.039Z,46.50
2023-05-16T00:04:20.826Z,46.71
2023-05-16T00:06:47.514Z,47.38
2023-05-16T00:09:14.101Z,48.26
2023-05-16T00:11:40.711Z,49.07
2023-05-16T00:14:07.846Z,49.36
2023-05-16T00:16:37.095Z,48.29
2023-05-16T00:19:04.914Z,51.55
2023-05-16T00:21:31.951Z,46.74
2023-05-16T00:23:58.585Z,48.20
2023-05-16T00:26:25.149Z,48.93
2023-05-16T00:28:51.767Z,49.56
2023-05-16T00:31:18.450Z,49.78
2023-05-16T00:33:45.086Z,52.45
2023-05-16T00:36:11.633Z,56.43
2023-05-16T00:38:38.191Z,52.03
2023-05-16T00:41:04.800Z,49.58
2023-05-16T00:43:31.354Z,49.91
2023-05-16T00:46:01.168Z,50.88
2023-05-16T00:48:27.812Z,50.35
2023-05-16T00:50:54.406Z,50.34
2023-05-16T00:53:21.663Z,48.79
2023-05-16T00:55:48.635Z,48.98
2023-05-16T00:58:16.132Z,49.78
2023-05-16T01:00:43.020Z,49.68
2023-05-16T01:03:09.730Z,50.06
2023-05-16T01:05:36.423Z,50.79
2023-05-16T01:08:03.033Z,50.61
2023-05-16T01:10:40.170Z,48.34
2023-05-16T01:13:12.721Z,48.79
2023-05-16T01:15:55.391Z,48.45
2023-05-16T01:18:37.175Z,50.08
2023-05-16T01:21:13.432Z,51.09
2023-05-16T01:23:48.935Z,52.08
2023-05-16T01:26:28.118Z,51.45
2023-05-16T01:28:54.988Z,50.71
2023-05-16T01:31:22.527Z,49.19
2023-05-16T01:33:49.330Z,49.27
2023-05-16T01:36:18.631Z,49.62
2023-05-16T01:38:54.101Z,50.24
2023-05-16T01:41:47.198Z,51.23
2023-05-16T01:44:28.941Z,52.56
2023-05-16T01:46:58.283Z,51.09
2023-05-16T01:49:44.185Z,51.72
2023-05-16T01:52:16.250Z,51.68
2023-05-16T01:54:47.171Z,52.24
2023-05-16T01:57:13.973Z,49.99
2023-05-16T01:59:42.918Z,51.33
2023-05-16T02:02:09.517Z,51.30
2023-05-16T02:04:36.098Z,52.28
2023-05-16T02:07:02.854Z,52.42
2023-05-16T02:09:29.509Z,53.21
2023-05-16T02:11:56.100Z,51.67
2023-05-16T02:14:22.646Z,52.28
2023-05-16T02:16:49.485Z,51.01
2023-05-16T02:19:16.217Z,50.41
2023-05-16T02:21:42.887Z,51.55
2023-05-16T02:24:09.416Z,50.18
2023-05-16T02:26:35.968Z,53.59
2023-05-16T02:29:02.711Z,52.86
2023-05-16T02:31:30.471Z,51.52
2023-05-16T02:33:58.252Z,52.40
2023-05-16T02:36:24.995Z,51.56
2023-05-16T02:38:51.540Z,52.07
2023-05-16T02:41:18.099Z,53.96
2023-05-16T02:43:46.892Z,50.68
2023-05-16T02:46:28.101Z,51.30
2023-05-16T02:48:54.789Z,50.71
2023-05-16T02:51:22.884Z,50.70
2023-05-16T02:53:49.937Z,52.54
2023-05-16T02:56:16.790Z,51.42
2023-05-16T02:58:43.432Z,51.55
2023-05-16T03:01:10.057Z,53.28
2023-05-16T03:03:37.253Z,54.24
2023-05-16T03:06:04.088Z,55.34
2023-05-16T03:08:30.879Z,53.59
2023-05-16T03:10:57.459Z,51.98
2023-05-16T03:13:24.187Z,54.81
2023-05-16T03:15:51.952Z,56.27
2023-05-16T03:18:18.680Z,57.05
2023-05-16T03:20:45.397Z,55.77
2023-05-16T03:23:12.089Z,52.43
2023-05-16T03:25:38.766Z,51.75
2023-05-16T03:28:05.946Z,51.49
2023-05-16T03:30:32.556Z,51.55
2023-05-16T03:32:59.155Z,52.91
2023-05-16T03:35:26.104Z,52.02
2023-05-16T03:37:52.997Z,51.79
2023-05-16T03:40:19.626Z,51.67
2023-05-16T03:42:46.479Z,51.39
2023-05-16T03:45:13.122Z,51.22
2023-05-16T03:47:39.933Z,51.02
2023-05-16T03:50:06.915Z,50.99
2023-05-16T03:52:33.934Z,50.75
2023-05-16T03:55:02.004Z,50.61
2023-05-16T03:57:30.029Z,50.89
2023-05-16T03:59:56.703Z,50.21
2023-05-16T04:02:23.445Z,51.59
2023-05-16T04:04:50.061Z,50.67
2023-05-16T04:07:16.668Z,49.81
2023-05-16T04:09:43.235Z,49.61
2023-05-16T04:12:09.814Z,49.55
2023-05-16T04:14:36.359Z,49.44
2023-05-16T04:17:02.971Z,50.97
2023-05-16T04:19:29.572Z,49.29
2023-05-16T04:21:56.205Z,49.01
2023-05-16T04:24:26.518Z,48.71
2023-05-16T04:26:53.140Z,48.72
2023-05-16T04:29:19.699Z,48.31
2023-05-16T04:31:46.340Z,48.53
2023-05-16T04:34:13.271Z,48.10
2023-05-16T04:36:40.364Z,48.20
2023-05-16T04:39:07.558Z,47.70
2023-05-16T04:41:35.138Z,48.00
2023-05-16T04:44:04.613Z,47.77
2023-05-16T04:46:31.517Z,47.89
2023-05-16T04:48:58.133Z,47.60
2023-05-16T04:51:24.867Z,47.68
2023-05-16T04:53:51.447Z,46.28
2023-05-16T04:56:19.079Z,46.75
2023-05-16T04:58:45.646Z,46.48
2023-05-16T05:01:12.252Z,46.13
2023-05-16T05:03:38.851Z,46.25
2023-05-16T05:06:05.709Z,45.94
2023-05-16T05:08:32.350Z,45.54
2023-05-16T05:10:59.534Z,45.59
2023-05-16T05:13:26.234Z,45.05
2023-05-16T05:15:52.935Z,45.12
2023-05-16T05:18:22.061Z,44.63
2023-05-16T05:20:48.751Z,43.82
2023-05-16T05:23:15.474Z,44.26
2023-05-16T05:25:42.110Z,43.73
2023-05-16T05:28:08.666Z,43.44
2023-05-16T05:30:35.222Z,43.26
2023-05-16T05:33:01.808Z,43.05
2023-05-16T05:35:28.699Z,42.60
2023-05-16T05:37:55.704Z,42.12
2023-05-16T05:40:22.266Z,42.44
2023-05-16T05:42:48.896Z,42.20
2023-05-16T05:45:16.111Z,42.35
2023-05-16T05:47:42.926Z,42.08
2023-05-16T05:50:11.518Z,42.07
2023-05-16T05:52:38.395Z,42.03
2023-05-16T05:55:05.165Z,42.30
2023-05-16T05:57:31.977Z,42.00
2023-05-16T05:59:58.528Z,42.10
2023-05-16T06:02:25.235Z,42.13
2023-05-16T06:04:51.956Z,41.83
2023-05-16T06:07:18.577Z,41.85
2023-05-16T06:09:45.471Z,41.57
2023-05-16T06:12:12.137Z,41.55
2023-05-16T06:14:38.721Z,41.67
2023-05-16T06:17:05.549Z,41.80
2023-05-16T06:19:32.086Z,41.67
2023-05-16T06:21:58.697Z,41.66
2023-05-16T06:24:25.450Z,41.64
2023-05-16T06:26:52.505Z,41.23
2023-05-16T06:29:19.033Z,40.87
2023-05-16T06:31:46.462Z,41.14
2023-05-16T06:34:14.332Z,41.31
2023-05-16T06:36:41.105Z,40.74
2023-05-16T06:39:07.732Z,41.15
2023-05-16T06:41:34.318Z,41.08
2023-05-16T06:44:00.949Z,40.77
2023-05-16T06:46:27.714Z,40.61
2023-05-16T06:48:54.509Z,40.45
2023-05-16T06:51:21.174Z,40.58
2023-05-16T06:53:47.833Z,40.69
2023-05-16T06:56:14.467Z,40.15
2023-05-16T06:58:41.381Z,39.95
2023-05-16T07:01:08.051Z,39.19
2023-05-16T07:03:34.920Z,39.52
2023-05-16T07:06:01.622Z,39.17
2023-05-16T07:08:28.229Z,39.17
2023-05-16T07:10:54.869Z,39.13
2023-05-16T07:13:21.461Z,39.09
2023-05-16T07:15:48.053Z,38.85
2023-05-16T07:18:14.776Z,39.14
2023-05-16T07:20:41.416Z,38.51
2023-05-16T07:23:08.056Z,35.96
2023-05-16T07:25:34.798Z,37.67
2023-05-16T07:28:01.625Z,35.57
2023-05-16T07:30:28.455Z,38.15
2023-05-16T07:32:55.172Z,37.35
2023-05-16T07:35:21.841Z,36.01
2023-05-16T07:37:48.412Z,37.07
2023-05-16T07:40:15.071Z,36.63
2023-05-16T07:42:41.688Z,36.86
2023-05-16T07:45:08.532Z,36.92
2023-05-16T07:47:36.296Z,36.60
2023-05-16T07:50:03.071Z,36.35
2023-05-16T07:52:30.676Z,36.55
2023-05-16T07:54:58.415Z,36.37
2023-05-16T07:57:25.372Z,35.32
2023-05-16T07:59:52.747Z,36.52
2023-05-16T08:02:19.745Z,34.68
2023-05-16T08:04:46.937Z,35.51
2023-05-16T08:07:13.745Z,35.51
2023-05-16T08:09:40.382Z,35.73
2023-05-16T08:12:07.181Z,35.08
2023-05-16T08:14:33.948Z,35.36
2023-05-16T08:17:00.693Z,35.22
2023-05-16T08:19:27.671Z,35.52
2023-05-16T08:21:54.438Z,34.68
2023-05-16T08:24:21.387Z,35.06
2023-05-16T08:26:48.045Z,34.00
2023-05-16T08:29:14.717Z,34.73
2023-05-16T08:31:41.419Z,34.89
2023-05-16T08:34:09.408Z,34.87
2023-05-16T08:36:36.784Z,35.08
2023-05-16T08:39:03.641Z,35.62
2023-05-16T08:41:30.699Z,35.81
2023-05-16T08:43:57.773Z,35.41
2023-05-16T08:46:25.141Z,35.61
2023-05-16T08:48:52.393Z,34.85
2023-05-16T08:51:19.877Z,35.60
2023-05-16T08:53:52.820Z,34.80
2023-05-16T08:56:19.481Z,35.29
2023-05-16T08:58:46.491Z,35.14
2023-05-16T09:01:13.533Z,35.64
2023-05-16T09:03:40.875Z,35.35
2023-05-16T09:06:08.416Z,35.30
2023-05-16T09:08:37.194Z,35.08
2023-05-16T09:11:03.971Z,34.86
2023-05-16T09:13:30.541Z,35.25
2023-05-16T09:16:10.896Z,33.67
2023-05-16T09:18:37.954Z,34.02
2023-05-16T09:21:10.246Z,33.64
2023-05-16T09:23:37.449Z,33.16
2023-05-16T09:26:08.193Z,33.03
2023-05-16T09:28:37.379Z,33.01
2023-05-16T09:31:04.104Z,31.78
2023-05-16T09:33:30.793Z,32.61
2023-05-16T09:35:58.687Z,31.90
2023-05-16T09:38:26.709Z,32.15
2023-05-16T09:40:53.943Z,32.04
2023-05-16T09:43:23.013Z,31.88
2023-05-16T09:45:49.697Z,31.35
2023-05-16T09:48:17.125Z,31.23
2023-05-16T09:51:05.608Z,31.04
2023-05-16T09:53:33.283Z,30.82
2023-05-16T09:56:01.142Z,30.34
2023-05-16T09:58:31.418Z,29.69
2023-05-16T10:00:58.830Z,30.26
2023-05-16T10:03:26.640Z,29.79
2023-05-16T10:05:53.982Z,27.04
2023-05-16T10:08:26.117Z,28.71
2023-05-16T10:10:53.899Z,27.77
2023-05-16T10:13:24.828Z,26.85
2023-05-16T10:15:52.480Z,21.74
2023-05-16T10:18:19.723Z,25.55
2023-05-16T10:20:49.207Z,23.69
2023-05-16T10:23:17.627Z,23.82
2023-05-16T10:25:44.881Z,25.99
2023-05-16T10:28:12.636Z,25.70
2023-05-16T10:30:41.161Z,25.27
2023-05-16T10:33:08.896Z,24.64
2023-05-16T10:35:35.752Z,19.48
2023-05-16T10:38:02.599Z,21.42
2023-05-16T10:40:29.696Z,24.12
2023-05-16T10:43:00.001Z,23.40
2023-05-16T10:45:27.037Z,19.22
2023-05-16T10:48:09.354Z,20.53
2023-05-16T10:50:36.223Z,21.51
2023-05-16T10:53:12.156Z,22.89
2023-05-16T10:55:39.202Z,22.31
2023-05-16T10:58:05.799Z,21.61
2023-05-16T11:00:32.370Z,22.10
2023-05-16T11:03:06.422Z,21.90
2023-05-16T11:05:33.710Z,21.09
2023-05-16T11:08:05.220Z,21.87
2023-05-16T11:10:31.907Z,21.71
2023-05-16T11:13:03.156Z,21.26
2023-05-16T11:15:32.619Z,21.51
2023-05-16T11:18:09.250Z,19.35
2023-05-16T11:20:40.276Z,21.06
2023-05-16T11:23:17.033Z,21.68
2023-05-16T11:25:45.739Z,20.08
2023-05-16T11:28:15.851Z,21.86
2023-05-16T11:30:46.697Z,20.65
2023-05-16T11:33:13.581Z,21.30
2023-05-16T11:35:40.395Z,21.55
2023-05-16T11:38:07.588Z,20.94
2023-05-16T11:40:34.933Z,21.81
2023-05-16T11:43:07.110Z,19.95
2023-05-16T11:45:34.466Z,21.32
2023-05-16T11:48:04.538Z,21.13
2023-05-16T11:50:31.302Z,20.32
2023-05-16T11:52:58.172Z,20.30
2023-05-16T11:55:40.491Z,20.15
2023-05-16T11:58:08.411Z,20.25
2023-05-16T12:00:35.109Z,20.08
2023-05-16T12:03:06.428Z,19.86
2023-05-16T12:05:35.119Z,19.23
2023-05-16T12:08:02.802Z,19.92
2023-05-16T12:10:31.503Z,20.17
2023-05-16T12:12:58.162Z,19.83
2023-05-16T12:15:24.896Z,19.47
2023-05-16T12:17:52.223Z,19.45
2023-05-16T12:20:19.225Z,18.62
2023-05-16T12:22:46.385Z,20.18
2023-05-16T12:25:29.397Z,20.25
2023-05-16T12:27:57.540Z,20.67
2023-05-16T12:30:25.520Z,20.65
2023-05-16T12:32:56.317Z,19.60
2023-05-16T12:35:23.494Z,20.33
2023-05-16T12:37:51.660Z,20.67
2023-05-16T12:40:18.520Z,20.21
2023-05-16T12:42:45.303Z,20.15
2023-05-16T12:45:16.307Z,19.95
2023-05-16T12:47:43.024Z,19.16
2023-05-16T12:50:12.096Z,20.16
2023-05-16T12:52:46.592Z,20.22
2023-05-16T12:55:13.249Z,19.93
2023-05-16T12:57:41.883Z,19.27
2023-05-16T13:00:08.823Z,19.67
2023-05-16T13:02:35.694Z,19.39
2023-05-16T13:05:02.341Z,19.21
2023-05-16T13:07:31.076Z,19.33
2023-05-16T13:09:57.667Z,19.20
2023-05-16T13:12:27.064Z,19.66
2023-05-16T13:14:53.822Z,20.31
2023-05-16T13:17:20.971Z,19.72
2023-05-16T13:19:48.910Z,19.77
2023-05-16T13:22:15.892Z,18.82
2023-05-16T13:24:42.465Z,18.69
2023-05-16T13:27:09.090Z,19.70
2023-05-16T13:29:35.794Z,19.43
2023-05-16T13:32:02.524Z,20.31
2023-05-16T13:34:29.518Z,20.10
2023-05-16T13:36:56.115Z,19.69
2023-05-16T13:39:22.925Z,20.25
2023-05-16T13:41:49.738Z,20.48
2023-05-16T13:44:16.854Z,20.28
2023-05-16T13:46:43.693Z,20.56
2023-05-16T13:49:10.566Z,20.45
2023-05-16T13:51:37.157Z,20.53
2023-05-16T13:54:03.907Z,20.29
2023-05-16T13:56:30.579Z,20.39
2023-05-16T13:59:03.943Z,20.46
2023-05-16T14:01:32.904Z,20.36
2023-05-16T14:03:59.721Z,20.29
2023-05-16T14:06:26.464Z,20.77
2023-05-16T14:08:53.064Z,20.56
2023-05-16T14:11:20.092Z,20.53
2023-05-16T14:13:46.750Z,19.96
2023-05-16T14:16:13.436Z,20.84
2023-05-16T14:18:40.177Z,21.00
2023-05-16T14:21:06.807Z,21.01
2023-05-16T14:23:33.709Z,21.15
2023-05-16T14:26:01.046Z,21.32
2023-05-16T14:28:27.675Z,21.09
2023-05-16T14:30:54.532Z,20.99
2023-05-16T14:33:21.449Z,20.74
2023-05-16T14:35:50.188Z,20.36
2023-05-16T14:38:17.204Z,19.13
2023-05-16T14:40:43.895Z,19.42
2023-05-16T14:43:10.616Z,20.26
2023-05-16T14:45:40.069Z,20.14
2023-05-16T14:48:08.418Z,20.39
2023-05-16T14:50:35.356Z,20.93
2023-05-16T14:53:01.931Z,21.38
2023-05-16T14:55:28.855Z,21.16
2023-05-16T14:57:59.485Z,20.88
2023-05-16T15:00:27.234Z,21.50
2023-05-16T15:02:54.511Z,21.87
2023-05-16T15:05:21.327Z,22.42
2023-05-16T15:07:48.665Z,22.52
2023-05-16T15:10:15.396Z,22.36
2023-05-16T15:12:43.351Z,22.95
2023-05-16T15:15:16.181Z,23.35
2023-05-16T15:17:43.234Z,23.48
2023-05-16T15:20:10.847Z,24.13
2023-05-16T15:22:39.388Z,24.36
2023-05-16T15:25:06.399Z,24.95
2023-05-16T15:27:33.022Z,26.75
2023-05-16T15:30:00.109Z,26.75
2023-05-16T15:32:26.959Z,25.81
2023-05-16T15:34:53.566Z,27.36
2023-05-16T15:37:20.636Z,27.00
2023-05-16T15:39:47.400Z,27.68
2023-05-16T15:42:14.582Z,27.80
2023-05-16T15:44:41.417Z,28.61
2023-05-16T15:47:08.309Z,28.36
2023-05-16T15:49:34.868Z,27.83
2023-05-16T15:52:01.612Z,28.05
2023-05-16T15:54:28.795Z,28.27
2023-05-16T15:56:55.440Z,28.46
2023-05-16T15:59:22.097Z,29.85
2023-05-16T16:01:48.901Z,28.84
2023-05-16T16:04:15.721Z,29.48
2023-05-16T16:06:42.387Z,28.89
2023-05-16T16:09:09.627Z,29.58
2023-05-16T16:11:36.213Z,30.03
2023-05-16T16:14:02.961Z,29.97
2023-05-16T16:16:29.586Z,29.24
2023-05-16T16:18:56.280Z,31.63
2023-05-16T16:21:23.888Z,29.57
2023-05-16T16:23:50.474Z,29.70
2023-05-16T16:26:17.581Z,29.82
2023-05-16T16:28:44.266Z,31.78
2023-05-16T16:31:11.148Z,30.32
2023-05-16T16:33:37.787Z,30.47
2023-05-16T16:36:04.540Z,31.36
2023-05-16T16:38:31.142Z,31.08
2023-05-16T16:40:57.836Z,30.81
2023-05-16T16:43:24.608Z,31.48
2023-05-16T16:45:51.343Z,31.78
2023-05-16T16:48:18.034Z,30.95
2023-05-16T16:50:44.636Z,31.81
2023-05-16T16:53:12.015Z,31.69
2023-05-16T16:55:40.733Z,32.12
2023-05-16T16:58:07.834Z,31.54
2023-05-16T17:00:34.514Z,31.31
2023-05-16T17:03:03.949Z,32.84
2023-05-16T17:05:30.861Z,32.25
2023-05-16T17:07:57.459Z,31.65
2023-05-16T17:10:24.343Z,32.18
2023-05-16T17:12:50.991Z,32.19
2023-05-16T17:15:17.833Z,34.09
2023-05-16T17:17:45.630Z,32.84
2023-05-16T17:20:13.234Z,32.27
2023-05-16T17:22:40.116Z,32.55
2023-05-16T17:25:08.065Z,31.91
2023-05-16T17:27:34.755Z,32.74
2023-05-16T17:30:01.560Z,32.07
2023-05-16T17:32:28.349Z,32.39
2023-05-16T17:34:55.378Z,32.13
2023-05-16T17:37:22.385Z,33.28
2023-05-16T17:39:49.085Z,32.25
2023-05-16T17:42:16.161Z,32.47
2023-05-16T17:44:42.989Z,32.48
2023-05-16T17:47:09.603Z,35.25
2023-05-16T17:49:36.299Z,32.76
2023-05-16T17:52:03.148Z,32.88
2023-05-16T17:54:32.095Z,33.11
2023-05-16T17:57:00.065Z,33.28
2023-05-16T17:59:29.997Z,33.76
2023-05-16T18:01:57.886Z,34.01
2023-05-16T18:04:24.808Z,34.37
2023-05-16T18:06:52.959Z,33.88
2023-05-16T18:09:20.791Z,33.90
2023-05-16T18:11:47.449Z,34.04
2023-05-16T18:14:14.444Z,33.98
2023-05-16T18:16:41.135Z,33.96
2023-05-16T18:19:08.985Z,33.74
2023-05-16T18:21:36.599Z,35.42
2023-05-16T18:24:03.405Z,34.24
2023-05-16T18:26:30.181Z,34.42
2023-05-16T18:28:56.789Z,34.62
2023-05-16T18:31:23.484Z,35.55
2023-05-16T18:33:50.308Z,37.40
2023-05-16T18:36:17.005Z,34.77
2023-05-16T18:38:43.678Z,35.07
2023-05-16T18:41:10.436Z,34.95
2023-05-16T18:43:37.214Z,34.78
2023-05-16T18:46:04.290Z,35.60
2023-05-16T18:48:31.034Z,37.07
2023-05-16T18:50:57.817Z,35.63
2023-05-16T18:53:24.505Z,35.44
2023-05-16T18:55:51.197Z,36.08
2023-05-16T18:58:17.827Z,35.63
2023-05-16T19:00:44.552Z,35.40
2023-05-16T19:03:13.232Z,36.60
2023-05-16T19:05:40.087Z,38.54
2023-05-16T19:08:07.154Z,38.61
2023-05-16T19:10:38.026Z,36.33
2023-05-16T19:13:08.053Z,36.67
2023-05-16T19:15:35.801Z,36.90
2023-05-16T19:18:02.765Z,37.92
2023-05-16T19:20:29.690Z,37.23
2023-05-16T19:22:56.832Z,39.11
2023-05-16T19:25:23.414Z,39.92
2023-05-16T19:27:50.295Z,38.09
2023-05-16T19:30:17.056Z,38.26
2023-05-16T19:32:43.833Z,37.49
2023-05-16T19:35:10.968Z,37.15
2023-05-16T19:37:37.748Z,38.23
2023-05-16T19:40:05.286Z,37.64
2023-05-16T19:42:31.975Z,38.08
2023-05-16T19:44:58.676Z,40.09
2023-05-16T19:47:25.536Z,38.50
2023-05-16T19:49:52.812Z,38.67
2023-05-16T19:52:19.444Z,38.94
2023-05-16T19:54:46.464Z,38.63
2023-05-16T19:57:13.169Z,41.33
2023-05-16T19:59:39.766Z,39.17
2023-05-16T20:02:06.961Z,39.03
2023-05-16T20:04:33.783Z,40.05
2023-05-16T20:07:00.687Z,41.05
2023-05-16T20:09:28.582Z,40.03
2023-05-16T20:11:57.351Z,39.58
2023-05-16T20:14:24.074Z,40.78
2023-05-16T20:16:51.467Z,40.83
2023-05-16T20:19:19.131Z,42.67
2023-05-16T20:21:46.063Z,42.61
2023-05-16T20:24:13.490Z,39.93
2023-05-16T20:26:40.534Z,40.47
2023-05-16T20:29:07.147Z,42.10
2023-05-16T20:31:33.757Z,42.00
2023-05-16T20:34:00.678Z,41.77
2023-05-16T20:36:27.398Z,42.41
2023-05-16T20:38:54.020Z,41.77
2023-05-16T20:41:20.996Z,41.92
2023-05-16T20:43:47.613Z,42.86
2023-05-16T20:46:14.211Z,42.33
2023-05-16T20:48:41.020Z,43.88
2023-05-16T20:51:08.531Z,44.20
2023-05-16T20:53:35.109Z,43.61
2023-05-16T20:56:01.695Z,41.15
2023-05-16T20:58:28.526Z,43.45
2023-05-16T21:00:55.279Z,42.64
2023-05-16T21:03:21.917Z,43.15
2023-05-16T21:05:48.708Z,43.65
2023-05-16T21:08:15.403Z,42.08
2023-05-16T21:10:41.974Z,42.62
2023-05-16T21:13:08.528Z,43.33
2023-05-16T21:15:35.254Z,44.28
2023-05-16T21:18:01.890Z,43.33
2023-05-16T21:20:30.153Z,42.15
2023-05-16T21:22:58.244Z,42.71
2023-05-16T21:25:24.792Z,44.46
2023-05-16T21:27:51.473Z,45.39
2023-05-16T21:30:18.054Z,44.12
2023-05-16T21:32:44.687Z,46.37
2023-05-16T21:35:11.391Z,43.31
2023-05-16T21:37:38.060Z,45.59
2023-05-16T21:40:06.418Z,43.40
2023-05-16T21:42:33.096Z,45.50
2023-05-16T21:44:59.672Z,43.03
2023-05-16T21:47:26.409Z,43.25
2023-05-16T21:49:53.038Z,43.54
2023-05-16T21:52:19.714Z,43.57
2023-05-16T21:54:51.492Z,43.85
2023-05-16T21:57:19.557Z,46.37
2023-05-16T21:59:46.285Z,43.56
2023-05-16T22:02:13.060Z,44.37
2023-05-16T22:04:39.800Z,43.69
2023-05-16T22:07:06.495Z,44.93
2023-05-16T22:09:33.064Z,44.44
2023-05-16T22:11:59.707Z,44.07
2023-05-16T22:14:26.366Z,43.66
2023-05-16T22:16:52.973Z,45.64
2023-05-16T22:19:19.649Z,44.68
2023-05-16T22:21:46.404Z,44.77
2023-05-16T22:24:13.224Z,45.95
2023-05-16T22:26:40.495Z,44.72
2023-05-16T22:29:07.146Z,44.94
2023-05-16T22:31:33.705Z,45.34
2023-05-16T22:34:00.517Z,46.36
2023-05-16T22:36:27.234Z,45.30
2023-05-16T22:38:53.932Z,45.25
2023-05-16T22:41:20.539Z,45.10
2023-05-16T22:43:47.151Z,45.50
2023-05-16T22:46:15.282Z,47.49
2023-05-16T22:48:41.945Z,45.34
2023-05-16T22:51:08.637Z,45.10
2023-05-16T22:53:35.238Z,45.74
2023-05-16T22:56:01.945Z,45.44
2023-05-16T22:58:28.542Z,45.42
2023-05-16T23:00:55.239Z,45.26
2023-05-16T23:03:22.303Z,45.80
2023-05-16T23:05:49.255Z,45.61
2023-05-16T23:08:15.902Z,46.63
2023-05-16T23:10:42.501Z,46.33
2023-05-16T23:13:09.116Z,45.67
2023-05-16T23:15:35.711Z,46.15
2023-05-16T23:18:02.411Z,45.58
2023-05-16T23:20:29.155Z,47.17
2023-05-16T23:22:55.784Z,46.18
2023-05-16T23:25:22.468Z,46.48
2023-05-16T23:27:49.127Z,48.29
2023-05-16T23:30:16.924Z,48.95
2023-05-16T23:32:43.639Z,50.53
2023-05-16T23:35:10.711Z,50.45
2023-05-16T23:37:37.346Z,47.80
2023-05-16T23:40:04.036Z,49.05
2023-05-16T23:42:31.281Z,47.92
2023-05-16T23:44:57.923Z,48.78
2023-05-16T23:47:24.550Z,46.26
2023-05-16T23:49:51.169Z,46.55
2023-05-16T23:52:17.809Z,47.26
2023-05-16T23:54:45.472Z,46.88
2023-05-16T23:57:12.087Z,46.71
2023-05-16T23:59:39.697Z,46.98
